sensor_id;sensor_type;location;lat;lon;timestamp;pressure;altitude;pressure_sealevel;temperature;humidity
8705;BME280;4389;41.932;25.904;2023-01-25T00:00:26;102076.88;;;3.66;77.89
8705;BME280;4389;41.932;25.904;2023-01-25T00:02:53;102074.91;;;3.71;77.75
8705;BME280;4389;41.932;25.904;2023-01-25T00:05:20;102080.97;;;3.73;77.71
8705;BME280;4389;41.932;25.904;2023-01-25T00:07:46;102071.56;;;3.68;77.92
8705;BME280;4389;41.932;25.904;2023-01-25T00:10:14;102076.47;;;3.52;78.69
8705;BME280;4389;41.932;25.904;2023-01-25T00:12:42;102069.75;;;3.70;78.00
8705;BME280;4389;41.932;25.904;2023-01-25T00:15:09;102058.31;;;3.72;77.29
8705;BME280;4389;41.932;25.904;2023-01-25T00:17:36;102055.44;;;3.55;77.57
8705;BME280;4389;41.932;25.904;2023-01-25T00:20:03;102058.75;;;3.60;78.26
8705;BME280;4389;41.932;25.904;2023-01-25T00:22:31;102062.56;;;3.50;78.69
8705;BME280;4389;41.932;25.904;2023-01-25T00:24:58;102060.78;;;3.52;78.96
8705;BME280;4389;41.932;25.904;2023-01-25T00:27:24;102054.88;;;3.46;79.58
8705;BME280;4389;41.932;25.904;2023-01-25T00:29:53;102055.22;;;3.61;77.96
8705;BME280;4389;41.932;25.904;2023-01-25T00:32:43;102063.31;;;3.54;78.96
8705;BME280;4389;41.932;25.904;2023-01-25T00:35:12;102061.91;;;3.45;79.12
8705;BME280;4389;41.932;25.904;2023-01-25T00:37:42;102060.53;;;3.58;78.14
8705;BME280;4389;41.932;25.904;2023-01-25T00:40:10;102048.50;;;3.54;78.69
8705;BME280;4389;41.932;25.904;2023-01-25T00:42:38;102056.38;;;3.53;78.47
8705;BME280;4389;41.932;25.904;2023-01-25T00:45:09;102056.31;;;3.56;78.71
8705;BME280;4389;41.932;25.904;2023-01-25T00:47:36;102051.31;;;3.48;78.45
8705;BME280;4389;41.932;25.904;2023-01-25T00:50:05;102043.25;;;3.54;78.48
8705;BME280;4389;41.932;25.904;2023-01-25T00:52:32;102039.94;;;3.49;78.41
8705;BME280;4389;41.932;25.904;2023-01-25T00:54:59;102042.34;;;3.55;78.17
8705;BME280;4389;41.932;25.904;2023-01-25T00:57:25;102053.19;;;3.45;79.18
8705;BME280;4389;41.932;25.904;2023-01-25T00:59:52;102043.59;;;3.45;79.27
8705;BME280;4389;41.932;25.904;2023-01-25T01:02:20;102045.53;;;3.39;79.09
8705;BME280;4389;41.932;25.904;2023-01-25T01:04:47;102048.16;;;3.39;79.10
8705;BME280;4389;41.932;25.904;2023-01-25T01:07:14;102043.03;;;3.36;78.97
8705;BME280;4389;41.932;25.904;2023-01-25T01:09:41;102051.06;;;3.31;79.67
8705;BME280;4389;41.932;25.904;2023-01-25T01:12:08;102050.22;;;3.29;79.75
8705;BME280;4389;41.932;25.904;2023-01-25T01:14:35;102050.97;;;3.33;79.64
8705;BME280;4389;41.932;25.904;2023-01-25T01:17:01;102043.78;;;3.39;80.05
8705;BME280;4389;41.932;25.904;2023-01-25T01:19:29;102047.59;;;3.29;79.66
8705;BME280;4389;41.932;25.904;2023-01-25T01:21:56;102048.44;;;3.31;79.59
8705;BME280;4389;41.932;25.904;2023-01-25T01:24:23;102044.09;;;3.30;79.31
8705;BME280;4389;41.932;25.904;2023-01-25T01:26:50;102046.03;;;3.25;79.58
8705;BME280;4389;41.932;25.904;2023-01-25T01:29:17;102044.19;;;3.27;79.98
8705;BME280;4389;41.932;25.904;2023-01-25T01:31:43;102041.63;;;3.26;80.24
8705;BME280;4389;41.932;25.904;2023-01-25T01:34:12;102040.34;;;3.37;79.71
8705;BME280;4389;41.932;25.904;2023-01-25T01:36:41;102043.09;;;3.34;79.28
8705;BME280;4389;41.932;25.904;2023-01-25T01:39:08;102040.59;;;3.31;78.97
8705;BME280;4389;41.932;25.904;2023-01-25T01:41:35;102038.84;;;3.30;79.19
8705;BME280;4389;41.932;25.904;2023-01-25T01:44:03;102035.88;;;3.41;78.78
8705;BME280;4389;41.932;25.904;2023-01-25T01:46:32;102030.72;;;3.39;78.92
8705;BME280;4389;41.932;25.904;2023-01-25T01:49:02;102033.41;;;3.36;78.73
8705;BME280;4389;41.932;25.904;2023-01-25T01:51:40;102038.78;;;3.33;78.97
8705;BME280;4389;41.932;25.904;2023-01-25T01:54:11;102039.69;;;3.32;79.10
8705;BME280;4389;41.932;25.904;2023-01-25T01:56:45;102040.47;;;3.34;79.00
8705;BME280;4389;41.932;25.904;2023-01-25T01:59:16;102036.69;;;3.43;78.07
8705;BME280;4389;41.932;25.904;2023-01-25T02:01:44;102031.09;;;3.29;78.40
8705;BME280;4389;41.932;25.904;2023-01-25T02:04:13;102023.66;;;3.41;78.73
8705;BME280;4389;41.932;25.904;2023-01-25T02:06:46;102030.22;;;3.28;78.69
8705;BME280;4389;41.932;25.904;2023-01-25T02:09:18;102026.28;;;3.41;79.15
8705;BME280;4389;41.932;25.904;2023-01-25T02:11:45;102028.19;;;3.36;79.07
8705;BME280;4389;41.932;25.904;2023-01-25T02:14:14;102026.69;;;3.29;79.05
8705;BME280;4389;41.932;25.904;2023-01-25T02:16:42;102024.91;;;3.31;79.32
8705;BME280;4389;41.932;25.904;2023-01-25T02:19:12;102033.63;;;3.30;79.76
8705;BME280;4389;41.932;25.904;2023-01-25T02:21:44;102023.16;;;3.30;79.64
8705;BME280;4389;41.932;25.904;2023-01-25T02:24:19;102025.19;;;3.22;79.96
8705;BME280;4389;41.932;25.904;2023-01-25T02:26:50;102036.31;;;3.29;80.11
8705;BME280;4389;41.932;25.904;2023-01-25T02:29:17;102027.59;;;3.28;80.10
8705;BME280;4389;41.932;25.904;2023-01-25T02:31:48;102025.00;;;3.28;80.18
8705;BME280;4389;41.932;25.904;2023-01-25T02:34:17;102028.50;;;3.27;80.07
8705;BME280;4389;41.932;25.904;2023-01-25T02:36:44;102037.47;;;3.20;79.96
8705;BME280;4389;41.932;25.904;2023-01-25T02:39:12;102029.47;;;3.25;79.99
8705;BME280;4389;41.932;25.904;2023-01-25T02:41:43;102033.16;;;3.19;80.42
8705;BME280;4389;41.932;25.904;2023-01-25T02:44:15;102034.06;;;3.18;80.99
8705;BME280;4389;41.932;25.904;2023-01-25T02:46:43;102037.03;;;3.08;80.86
8705;BME280;4389;41.932;25.904;2023-01-25T02:49:10;102042.81;;;3.17;81.22
8705;BME280;4389;41.932;25.904;2023-01-25T02:51:39;102043.09;;;3.08;81.30
8705;BME280;4389;41.932;25.904;2023-01-25T02:54:08;102039.38;;;3.15;81.92
8705;BME280;4389;41.932;25.904;2023-01-25T02:56:36;102030.34;;;3.25;81.68
8705;BME280;4389;41.932;25.904;2023-01-25T02:59:03;102030.81;;;3.36;81.64
8705;BME280;4389;41.932;25.904;2023-01-25T03:01:32;102030.41;;;3.22;82.04
8705;BME280;4389;41.932;25.904;2023-01-25T03:03:58;102038.25;;;3.22;82.37
8705;BME280;4389;41.932;25.904;2023-01-25T03:06:25;102037.47;;;3.20;81.89
8705;BME280;4389;41.932;25.904;2023-01-25T03:08:52;102031.41;;;3.20;82.98
8705;BME280;4389;41.932;25.904;2023-01-25T03:11:19;102035.88;;;3.16;83.11
8705;BME280;4389;41.932;25.904;2023-01-25T03:13:46;102023.47;;;3.21;82.33
8705;BME280;4389;41.932;25.904;2023-01-25T03:16:13;102031.50;;;3.17;82.70
8705;BME280;4389;41.932;25.904;2023-01-25T03:18:41;102036.84;;;3.14;82.58
8705;BME280;4389;41.932;25.904;2023-01-25T03:21:10;102034.06;;;3.18;82.11
8705;BME280;4389;41.932;25.904;2023-01-25T03:23:37;102040.78;;;3.25;82.29
8705;BME280;4389;41.932;25.904;2023-01-25T03:26:06;102039.38;;;3.15;81.98
8705;BME280;4389;41.932;25.904;2023-01-25T03:28:34;102030.66;;;3.16;82.00
8705;BME280;4389;41.932;25.904;2023-01-25T03:31:01;102030.41;;;3.22;81.70
8705;BME280;4389;41.932;25.904;2023-01-25T03:33:27;102039.38;;;3.15;81.62
8705;BME280;4389;41.932;25.904;2023-01-25T03:35:56;102027.91;;;3.19;81.39
8705;BME280;4389;41.932;25.904;2023-01-25T03:38:23;102031.44;;;3.18;80.55
8705;BME280;4389;41.932;25.904;2023-01-25T03:40:50;102044.94;;;3.05;81.02
8705;BME280;4389;41.932;25.904;2023-01-25T03:43:17;102035.53;;;3.01;81.39
8705;BME280;4389;41.932;25.904;2023-01-25T03:45:44;102029.03;;;3.12;81.24
8705;BME280;4389;41.932;25.904;2023-01-25T03:48:11;102038.03;;;3.04;80.93
8705;BME280;4389;41.932;25.904;2023-01-25T03:50:38;102036.88;;;3.12;81.24
8705;BME280;4389;41.932;25.904;2023-01-25T03:53:16;102042.22;;;3.09;80.82
8705;BME280;4389;41.932;25.904;2023-01-25T03:55:53;102053.53;;;3.08;80.71
8705;BME280;4389;41.932;25.904;2023-01-25T03:58:20;102051.97;;;3.04;80.06
8705;BME280;4389;41.932;25.904;2023-01-25T04:00:47;102051.84;;;3.07;79.66
8705;BME280;4389;41.932;25.904;2023-01-25T04:03:14;102056.59;;;2.96;79.94
8705;BME280;4389;41.932;25.904;2023-01-25T04:05:42;102054.66;;;3.01;79.77
8705;BME280;4389;41.932;25.904;2023-01-25T04:08:10;102055.75;;;2.94;79.90
8705;BME280;4389;41.932;25.904;2023-01-25T04:10:36;102059.09;;;2.99;79.59
8705;BME280;4389;41.932;25.904;2023-01-25T04:13:03;102061.66;;;3.01;77.70
8705;BME280;4389;41.932;25.904;2023-01-25T04:15:30;102060.72;;;3.03;78.67
8705;BME280;4389;41.932;25.904;2023-01-25T04:17:57;102054.53;;;3.06;78.82
8705;BME280;4389;41.932;25.904;2023-01-25T04:20:24;102065.19;;;3.00;78.79
8705;BME280;4389;41.932;25.904;2023-01-25T04:22:50;102053.66;;;3.05;78.33
8705;BME280;4389;41.932;25.904;2023-01-25T04:25:19;102054.41;;;3.09;78.49
8705;BME280;4389;41.932;25.904;2023-01-25T04:27:45;102049.22;;;3.07;77.78
8705;BME280;4389;41.932;25.904;2023-01-25T04:30:12;102051.41;;;2.95;78.77
8705;BME280;4389;41.932;25.904;2023-01-25T04:32:39;102050.50;;;2.96;78.20
8705;BME280;4389;41.932;25.904;2023-01-25T04:35:06;102051.25;;;2.99;78.63
8705;BME280;4389;41.932;25.904;2023-01-25T04:37:33;102059.00;;;3.02;77.85
8705;BME280;4389;41.932;25.904;2023-01-25T04:40:00;102062.72;;;2.95;77.12
8705;BME280;4389;41.932;25.904;2023-01-25T04:42:28;102064.63;;;2.90;77.30
8705;BME280;4389;41.932;25.904;2023-01-25T04:44:55;102058.53;;;2.90;77.25
8705;BME280;4389;41.932;25.904;2023-01-25T04:47:22;102067.13;;;2.93;77.25
8705;BME280;4389;41.932;25.904;2023-01-25T04:49:49;102059.13;;;2.98;77.03
8705;BME280;4389;41.932;25.904;2023-01-25T04:52:15;102061.81;;;2.96;78.05
8705;BME280;4389;41.932;25.904;2023-01-25T04:54:42;102070.25;;;3.04;77.16
8705;BME280;4389;41.932;25.904;2023-01-25T04:57:09;102069.53;;;2.99;77.23
8705;BME280;4389;41.932;25.904;2023-01-25T04:59:38;102080.09;;;2.96;76.65
8705;BME280;4389;41.932;25.904;2023-01-25T05:02:05;102082.09;;;2.88;76.49
8705;BME280;4389;41.932;25.904;2023-01-25T05:04:32;102070.75;;;2.89;77.07
8705;BME280;4389;41.932;25.904;2023-01-25T05:06:59;102071.66;;;2.88;77.60
8705;BME280;4389;41.932;25.904;2023-01-25T05:09:25;102081.88;;;2.94;77.70
8705;BME280;4389;41.932;25.904;2023-01-25T05:11:52;102075.91;;;2.91;77.39
8705;BME280;4389;41.932;25.904;2023-01-25T05:14:19;102076.66;;;2.94;77.26
8705;BME280;4389;41.932;25.904;2023-01-25T05:16:47;102067.22;;;2.90;77.55
8705;BME280;4389;41.932;25.904;2023-01-25T05:19:14;102073.38;;;2.89;77.88
8705;BME280;4389;41.932;25.904;2023-01-25T05:21:41;102074.16;;;2.91;78.03
8705;BME280;4389;41.932;25.904;2023-01-25T05:24:27;102077.50;;;2.96;78.39
8705;BME280;4389;41.932;25.904;2023-01-25T05:26:54;102085.34;;;2.96;77.38
8705;BME280;4389;41.932;25.904;2023-01-25T05:29:28;102086.44;;;2.89;77.55
8705;BME280;4389;41.932;25.904;2023-01-25T05:31:58;102081.25;;;2.88;77.35
8705;BME280;4389;41.932;25.904;2023-01-25T05:34:24;102092.25;;;2.97;77.77
8705;BME280;4389;41.932;25.904;2023-01-25T05:36:51;102097.56;;;2.94;77.71
8705;BME280;4389;41.932;25.904;2023-01-25T05:39:19;102090.56;;;2.96;76.95
8705;BME280;4389;41.932;25.904;2023-01-25T05:41:46;102090.75;;;2.90;77.25
8705;BME280;4389;41.932;25.904;2023-01-25T05:44:12;102087.97;;;2.95;76.88
8705;BME280;4389;41.932;25.904;2023-01-25T05:46:39;102093.09;;;2.98;77.40
8705;BME280;4389;41.932;25.904;2023-01-25T05:49:08;102101.44;;;3.10;78.01
8705;BME280;4389;41.932;25.904;2023-01-25T05:51:35;102095.38;;;3.08;78.11
8705;BME280;4389;41.932;25.904;2023-01-25T05:54:03;102103.63;;;3.22;77.32
8705;BME280;4389;41.932;25.904;2023-01-25T05:56:30;102100.03;;;3.26;76.70
8705;BME280;4389;41.932;25.904;2023-01-25T05:58:58;102099.97;;;3.28;76.29
8705;BME280;4389;41.932;25.904;2023-01-25T06:01:26;102095.78;;;3.22;75.89
8705;BME280;4389;41.932;25.904;2023-01-25T06:03:53;102092.69;;;3.11;76.07
8705;BME280;4389;41.932;25.904;2023-01-25T06:06:22;102090.78;;;3.16;75.34
8705;BME280;4389;41.932;25.904;2023-01-25T06:08:49;102086.03;;;3.27;75.46
8705;BME280;4389;41.932;25.904;2023-01-25T06:11:19;102079.09;;;3.26;76.01
8705;BME280;4389;41.932;25.904;2023-01-25T06:13:46;102092.97;;;3.28;75.75
8705;BME280;4389;41.932;25.904;2023-01-25T06:16:14;102088.81;;;3.23;75.01
8705;BME280;4389;41.932;25.904;2023-01-25T06:18:41;102085.72;;;3.36;74.98
8705;BME280;4389;41.932;25.904;2023-01-25T06:21:07;102084.94;;;3.34;74.10
8705;BME280;4389;41.932;25.904;2023-01-25T06:23:36;102084.63;;;3.43;74.66
8705;BME280;4389;41.932;25.904;2023-01-25T06:26:05;102085.13;;;3.54;74.75
8705;BME280;4389;41.932;25.904;2023-01-25T06:28:33;102077.88;;;3.62;74.32
8705;BME280;4389;41.932;25.904;2023-01-25T06:31:05;102081.34;;;3.63;72.34
8705;BME280;4389;41.932;25.904;2023-01-25T06:33:32;102081.59;;;3.55;72.91
8705;BME280;4389;41.932;25.904;2023-01-25T06:36:00;102092.06;;;3.55;72.89
8705;BME280;4389;41.932;25.904;2023-01-25T06:38:27;102083.09;;;3.62;72.64
8705;BME280;4389;41.932;25.904;2023-01-25T06:40:57;102099.53;;;3.66;72.37
8705;BME280;4389;41.932;25.904;2023-01-25T06:43:24;102095.25;;;3.63;72.15
8705;BME280;4389;41.932;25.904;2023-01-25T06:45:51;102100.41;;;3.66;73.38
8705;BME280;4389;41.932;25.904;2023-01-25T06:48:18;102094.94;;;3.72;71.81
8705;BME280;4389;41.932;25.904;2023-01-25T06:50:52;102098.19;;;3.80;72.28
8705;BME280;4389;41.932;25.904;2023-01-25T06:53:19;102102.50;;;3.81;73.03
8705;BME280;4389;41.932;25.904;2023-01-25T06:55:46;102095.81;;;3.97;70.74
8705;BME280;4389;41.932;25.904;2023-01-25T06:58:14;102096.88;;;3.92;71.75
8705;BME280;4389;41.932;25.904;2023-01-25T07:00:41;102103.00;;;3.91;70.25
8705;BME280;4389;41.932;25.904;2023-01-25T07:03:07;102094.09;;;3.96;70.36
8705;BME280;4389;41.932;25.904;2023-01-25T07:05:34;102102.97;;;3.92;70.18
8705;BME280;4389;41.932;25.904;2023-01-25T07:08:01;102105.53;;;3.94;70.08
8705;BME280;4389;41.932;25.904;2023-01-25T07:10:28;102104.63;;;3.95;69.20
8705;BME280;4389;41.932;25.904;2023-01-25T07:12:55;102106.59;;;3.88;69.88
8705;BME280;4389;41.932;25.904;2023-01-25T07:15:23;102108.97;;;3.94;69.59
8705;BME280;4389;41.932;25.904;2023-01-25T07:17:51;102103.16;;;3.86;70.89
8705;BME280;4389;41.932;25.904;2023-01-25T07:20:18;102108.41;;;3.86;70.47
8705;BME280;4389;41.932;25.904;2023-01-25T07:22:45;102107.97;;;3.98;70.25
8705;BME280;4389;41.932;25.904;2023-01-25T07:25:11;102111.38;;;4.00;69.01
8705;BME280;4389;41.932;25.904;2023-01-25T07:27:39;102113.69;;;4.09;70.18
8705;BME280;4389;41.932;25.904;2023-01-25T07:30:07;102113.25;;;3.97;69.14
8705;BME280;4389;41.932;25.904;2023-01-25T07:32:35;102113.34;;;3.95;69.27
8705;BME280;4389;41.932;25.904;2023-01-25T07:35:02;102116.41;;;4.06;68.50
8705;BME280;4389;41.932;25.904;2023-01-25T07:37:29;102113.09;;;4.01;68.02
8705;BME280;4389;41.932;25.904;2023-01-25T07:39:58;102117.50;;;4.01;69.39
8705;BME280;4389;41.932;25.904;2023-01-25T07:42:25;102105.19;;;4.03;69.35
8705;BME280;4389;41.932;25.904;2023-01-25T07:44:52;102111.09;;;4.09;69.87
8705;BME280;4389;41.932;25.904;2023-01-25T07:47:19;102111.09;;;4.09;69.66
8705;BME280;4389;41.932;25.904;2023-01-25T07:49:47;102114.16;;;4.20;67.55
8705;BME280;4389;41.932;25.904;2023-01-25T07:52:14;102110.84;;;4.15;67.86
8705;BME280;4389;41.932;25.904;2023-01-25T07:54:41;102116.63;;;4.00;68.37
8705;BME280;4389;41.932;25.904;2023-01-25T07:57:08;102113.00;;;4.04;70.17
8705;BME280;4389;41.932;25.904;2023-01-25T07:59:35;102117.06;;;4.13;70.01
8705;BME280;4389;41.932;25.904;2023-01-25T08:02:02;102118.56;;;4.20;68.12
8705;BME280;4389;41.932;25.904;2023-01-25T08:04:29;102112.31;;;4.22;68.82
8705;BME280;4389;41.932;25.904;2023-01-25T08:06:57;102111.50;;;4.22;67.85
8705;BME280;4389;41.932;25.904;2023-01-25T08:09:24;102106.44;;;4.17;67.96
8705;BME280;4389;41.932;25.904;2023-01-25T08:11:51;102103.81;;;4.17;69.88
8705;BME280;4389;41.932;25.904;2023-01-25T08:14:18;102109.84;;;4.19;67.61
8705;BME280;4389;41.932;25.904;2023-01-25T08:16:45;102108.47;;;4.32;68.21
8705;BME280;4389;41.932;25.904;2023-01-25T08:19:12;102118.53;;;4.44;68.65
8705;BME280;4389;41.932;25.904;2023-01-25T08:21:39;102117.13;;;4.57;67.93
8705;BME280;4389;41.932;25.904;2023-01-25T08:24:08;102119.75;;;4.57;67.93
8705;BME280;4389;41.932;25.904;2023-01-25T08:26:35;102112.53;;;4.63;67.57
8705;BME280;4389;41.932;25.904;2023-01-25T08:29:02;102121.56;;;4.55;68.31
8705;BME280;4389;41.932;25.904;2023-01-25T08:31:31;102114.72;;;4.51;67.11
8705;BME280;4389;41.932;25.904;2023-01-25T08:33:59;102115.19;;;4.39;68.19
8705;BME280;4389;41.932;25.904;2023-01-25T08:36:26;102122.03;;;4.43;67.59
8705;BME280;4389;41.932;25.904;2023-01-25T08:38:55;102114.69;;;4.52;68.11
8705;BME280;4389;41.932;25.904;2023-01-25T08:41:23;102110.00;;;4.60;69.33
8705;BME280;4389;41.932;25.904;2023-01-25T08:43:52;102102.47;;;4.74;68.42
8705;BME280;4389;41.932;25.904;2023-01-25T08:46:20;102105.50;;;4.64;68.32
8705;BME280;4389;41.932;25.904;2023-01-25T08:51:15;102104.53;;;4.66;67.73
8705;BME280;4389;41.932;25.904;2023-01-25T08:53:42;102103.78;;;4.63;66.10
8705;BME280;4389;41.932;25.904;2023-01-25T08:56:10;102098.78;;;4.57;66.47
8705;BME280;4389;41.932;25.904;2023-01-25T08:58:41;102108.19;;;4.62;66.66
8705;BME280;4389;41.932;25.904;2023-01-25T09:01:10;102102.88;;;4.64;66.73
8705;BME280;4389;41.932;25.904;2023-01-25T09:03:41;102109.59;;;4.71;67.73
8705;BME280;4389;41.932;25.904;2023-01-25T09:06:09;102101.16;;;4.63;68.13
8705;BME280;4389;41.932;25.904;2023-01-25T09:08:36;102096.63;;;4.68;66.50
8705;BME280;4389;41.932;25.904;2023-01-25T09:11:04;102087.47;;;4.78;67.39
8705;BME280;4389;41.932;25.904;2023-01-25T09:13:32;102091.38;;;4.89;65.79
8705;BME280;4389;41.932;25.904;2023-01-25T09:16:00;102086.31;;;4.85;67.98
8705;BME280;4389;41.932;25.904;2023-01-25T09:18:28;102085.75;;;4.77;67.13
8705;BME280;4389;41.932;25.904;2023-01-25T09:20:56;102073.84;;;4.68;67.95
8705;BME280;4389;41.932;25.904;2023-01-25T09:23:24;102066.22;;;4.85;67.70
8705;BME280;4389;41.932;25.904;2023-01-25T09:25:55;102078.59;;;4.82;66.51
8705;BME280;4389;41.932;25.904;2023-01-25T09:28:23;102065.53;;;4.59;67.49
8705;BME280;4389;41.932;25.904;2023-01-25T09:30:54;102055.38;;;4.50;66.83
8705;BME280;4389;41.932;25.904;2023-01-25T09:33:25;102056.25;;;4.50;68.17
8705;BME280;4389;41.932;25.904;2023-01-25T09:35:52;102042.72;;;4.61;67.46
8705;BME280;4389;41.932;25.904;2023-01-25T09:38:19;102039.91;;;4.65;68.24
8705;BME280;4389;41.932;25.904;2023-01-25T09:40:56;102035.28;;;4.72;67.91
8705;BME280;4389;41.932;25.904;2023-01-25T09:43:33;102032.97;;;4.86;67.52
8705;BME280;4389;41.932;25.904;2023-01-25T09:46:10;102037.97;;;4.92;67.48
8705;BME280;4389;41.932;25.904;2023-01-25T09:48:46;102033.69;;;4.89;68.69
8705;BME280;4389;41.932;25.904;2023-01-25T09:51:24;102032.47;;;4.98;67.60
8705;BME280;4389;41.932;25.904;2023-01-25T09:53:53;102032.84;;;4.89;68.28
8705;BME280;4389;41.932;25.904;2023-01-25T09:56:24;102029.84;;;4.98;68.13
8705;BME280;4389;41.932;25.904;2023-01-25T09:58:54;102023.59;;;5.02;67.59
8705;BME280;4389;41.932;25.904;2023-01-25T10:01:26;102021.75;;;5.04;67.50
8705;BME280;4389;41.932;25.904;2023-01-25T10:03:57;102021.41;;;4.91;67.65
8705;BME280;4389;41.932;25.904;2023-01-25T10:06:35;102011.16;;;4.85;67.06
8705;BME280;4389;41.932;25.904;2023-01-25T10:09:10;102008.97;;;4.75;67.12
8705;BME280;4389;41.932;25.904;2023-01-25T10:11:41;102010.91;;;4.70;67.95
8705;BME280;4389;41.932;25.904;2023-01-25T10:14:13;102002.25;;;4.68;69.78
8705;BME280;4389;41.932;25.904;2023-01-25T10:16:49;101998.59;;;4.72;70.12
8705;BME280;4389;41.932;25.904;2023-01-25T10:19:31;101996.88;;;4.71;70.21
8705;BME280;4389;41.932;25.904;2023-01-25T10:22:03;101988.22;;;4.69;69.12
8705;BME280;4389;41.932;25.904;2023-01-25T10:24:57;101987.44;;;4.67;68.43
8705;BME280;4389;41.932;25.904;2023-01-25T10:27:37;101982.41;;;4.62;68.17
8705;BME280;4389;41.932;25.904;2023-01-25T10:30:19;101966.88;;;4.78;68.85
8705;BME280;4389;41.932;25.904;2023-01-25T10:32:49;101968.59;;;4.79;68.24
8705;BME280;4389;41.932;25.904;2023-01-25T10:35:22;101967.56;;;4.61;67.92
8705;BME280;4389;41.932;25.904;2023-01-25T10:37:50;101964.66;;;4.69;67.88
8705;BME280;4389;41.932;25.904;2023-01-25T10:40:20;101960.19;;;4.71;68.09
8705;BME280;4389;41.932;25.904;2023-01-25T10:42:54;101955.56;;;4.77;69.13
8705;BME280;4389;41.932;25.904;2023-01-25T10:45:22;101956.09;;;4.64;67.84
8705;BME280;4389;41.932;25.904;2023-01-25T10:47:51;101947.69;;;4.56;68.43
8705;BME280;4389;41.932;25.904;2023-01-25T10:50:50;101943.47;;;4.73;67.60
8705;BME280;4389;41.932;25.904;2023-01-25T10:53:24;101946.53;;;4.84;65.82
8705;BME280;4389;41.932;25.904;2023-01-25T10:56:05;101932.34;;;4.88;66.84
8705;BME280;4389;41.932;25.904;2023-01-25T10:58:38;101932.72;;;5.01;66.94
8705;BME280;4389;41.932;25.904;2023-01-25T11:01:07;101924.81;;;5.21;66.53
8705;BME280;4389;41.932;25.904;2023-01-25T11:03:36;101928.69;;;5.32;66.58
8705;BME280;4389;41.932;25.904;2023-01-25T11:06:07;101928.25;;;5.23;65.35
8705;BME280;4389;41.932;25.904;2023-01-25T11:08:35;101919.56;;;5.21;66.15
8705;BME280;4389;41.932;25.904;2023-01-25T11:11:22;101904.56;;;5.24;64.42
8705;BME280;4389;41.932;25.904;2023-01-25T11:13:50;101907.84;;;5.29;64.39
8705;BME280;4389;41.932;25.904;2023-01-25T11:16:33;101905.00;;;5.34;63.61
8705;BME280;4389;41.932;25.904;2023-01-25T11:19:01;101912.50;;;5.23;63.77
8705;BME280;4389;41.932;25.904;2023-01-25T11:21:31;101904.50;;;5.06;65.37
8705;BME280;4389;41.932;25.904;2023-01-25T11:24:14;101916.97;;;5.01;65.26
8705;BME280;4389;41.932;25.904;2023-01-25T11:26:41;101912.38;;;5.06;65.74
8705;BME280;4389;41.932;25.904;2023-01-25T11:29:14;101910.41;;;5.31;63.57
8705;BME280;4389;41.932;25.904;2023-01-25T11:31:43;101908.03;;;5.25;63.30
8705;BME280;4389;41.932;25.904;2023-01-25T11:34:12;101908.56;;;5.33;63.28
8705;BME280;4389;41.932;25.904;2023-01-25T11:36:50;101904.88;;;5.37;63.65
8705;BME280;4389;41.932;25.904;2023-01-25T11:42:22;101893.94;;;5.27;63.70
8705;BME280;4389;41.932;25.904;2023-01-25T11:45:05;101887.16;;;5.42;62.63
8705;BME280;4389;41.932;25.904;2023-01-25T11:47:47;101880.34;;;5.38;61.18
8705;BME280;4389;41.932;25.904;2023-01-25T11:50:24;101871.66;;;5.36;62.04
8705;BME280;4389;41.932;25.904;2023-01-25T11:55:54;101872.25;;;5.04;63.46
8705;BME280;4389;41.932;25.904;2023-01-25T11:58:37;101866.84;;;5.27;64.71
8705;BME280;4389;41.932;25.904;2023-01-25T12:01:14;101860.63;;;5.48;62.57
8705;BME280;4389;41.932;25.904;2023-01-25T12:06:41;101860.63;;;5.29;61.96
8705;BME280;4389;41.932;25.904;2023-01-25T12:09:36;101849.56;;;5.23;62.15
8705;BME280;4389;41.932;25.904;2023-01-25T12:12:14;101841.03;;;5.18;63.82
8705;BME280;4389;41.932;25.904;2023-01-25T12:14:53;101840.59;;;5.27;61.86
8705;BME280;4389;41.932;25.904;2023-01-25T12:17:34;101844.44;;;5.20;62.38
8705;BME280;4389;41.932;25.904;2023-01-25T12:20:19;101827.00;;;5.19;60.69
8705;BME280;4389;41.932;25.904;2023-01-25T12:23:01;101839.88;;;5.05;60.83
8705;BME280;4389;41.932;25.904;2023-01-25T12:25:46;101843.25;;;5.07;61.91
8705;BME280;4389;41.932;25.904;2023-01-25T12:28:23;101816.16;;;5.08;63.32
8705;BME280;4389;41.932;25.904;2023-01-25T12:30:55;101807.59;;;5.23;63.35
8705;BME280;4389;41.932;25.904;2023-01-25T12:33:27;101805.50;;;5.11;61.80
8705;BME280;4389;41.932;25.904;2023-01-25T12:36:00;101810.53;;;5.15;61.96
8705;BME280;4389;41.932;25.904;2023-01-25T12:38:36;101806.94;;;5.18;63.22
8705;BME280;4389;41.932;25.904;2023-01-25T12:41:21;101800.59;;;5.22;63.60
8705;BME280;4389;41.932;25.904;2023-01-25T12:43:53;101789.28;;;5.40;60.90
8705;BME280;4389;41.932;25.904;2023-01-25T12:46:25;101778.78;;;5.40;62.65
8705;BME280;4389;41.932;25.904;2023-01-25T12:48:57;101787.88;;;5.33;62.08
8705;BME280;4389;41.932;25.904;2023-01-25T12:51:32;101783.25;;;5.38;62.01
8705;BME280;4389;41.932;25.904;2023-01-25T12:54:02;101782.47;;;5.17;63.88
8705;BME280;4389;41.932;25.904;2023-01-25T12:56:37;101792.25;;;5.14;64.32
8705;BME280;4389;41.932;25.904;2023-01-25T12:59:14;101797.78;;;5.08;64.74
8705;BME280;4389;41.932;25.904;2023-01-25T13:01:49;101786.69;;;5.01;63.28
8705;BME280;4389;41.932;25.904;2023-01-25T13:04:24;101788.03;;;4.91;64.73
8705;BME280;4389;41.932;25.904;2023-01-25T13:06:59;101791.38;;;4.95;65.72
8705;BME280;4389;41.932;25.904;2023-01-25T13:09:34;101795.19;;;4.88;64.14
8705;BME280;4389;41.932;25.904;2023-01-25T13:12:08;101790.94;;;4.65;66.54
8705;BME280;4389;41.932;25.904;2023-01-25T13:14:38;101791.41;;;4.75;65.92
8705;BME280;4389;41.932;25.904;2023-01-25T13:17:20;101796.13;;;4.87;65.14
8705;BME280;4389;41.932;25.904;2023-01-25T13:19:48;101789.03;;;4.89;65.84
8705;BME280;4389;41.932;25.904;2023-01-25T13:25:20;101794.38;;;4.86;65.05
8705;BME280;4389;41.932;25.904;2023-01-25T13:27:48;101779.38;;;4.89;66.52
8705;BME280;4389;41.932;25.904;2023-01-25T13:30:31;101787.19;;;4.91;66.31
8705;BME280;4389;41.932;25.904;2023-01-25T13:33:01;101787.72;;;4.79;66.66
8705;BME280;4389;41.932;25.904;2023-01-25T13:35:31;101787.38;;;4.86;65.07
8705;BME280;4389;41.932;25.904;2023-01-25T13:38:02;101782.09;;;4.88;65.46